createdAt,value
2019-03-26T00:04:22.363Z,4.10
2019-03-26T00:09:23.456Z,3.80
2019-03-26T00:14:24.560Z,5.60
2019-03-26T00:19:25.664Z,4.30
2019-03-26T00:24:26.757Z,3.70
2019-03-26T00:29:27.869Z,4.50
2019-03-26T00:34:29.075Z,4.20
2019-03-26T00:39:30.160Z,3.70
2019-03-26T00:44:31.252Z,4.40
2019-03-26T00:49:32.381Z,4.70
2019-03-26T00:54:33.475Z,3.80
2019-03-26T00:59:34.577Z,5.80
2019-03-26T01:04:35.792Z,3.70
2019-03-26T01:09:37.024Z,4.10
2019-03-26T01:14:38.107Z,3.60
2019-03-26T01:19:39.187Z,4.50
2019-03-26T01:24:40.257Z,3.40
2019-03-26T01:29:41.339Z,3.60
2019-03-26T01:34:46.264Z,3.30
2019-03-26T01:39:45.419Z,4.30
2019-03-26T01:44:46.525Z,3.60
2019-03-26T01:49:47.640Z,3.50
2019-03-26T01:54:50.000Z,3.40
2019-03-26T01:59:53.378Z,3.40
2019-03-26T02:05:00.163Z,3.40
2019-03-26T02:09:58.706Z,3.40
2019-03-26T02:14:59.792Z,3.30
2019-03-26T02:20:00.893Z,3.60
2019-03-26T02:25:03.617Z,3.30
2019-03-26T02:30:05.241Z,3.30
2019-03-26T02:35:17.941Z,3.30
2019-03-26T02:40:09.675Z,3.80
2019-03-26T02:45:13.688Z,3.40
2019-03-26T02:50:14.917Z,3.20
2019-03-26T02:55:17.356Z,3.20
2019-03-26T03:00:18.471Z,3.20
2019-03-26T03:05:34.258Z,3.50
2019-03-26T03:10:23.719Z,3.30
2019-03-26T03:15:24.822Z,3.40
2019-03-26T03:20:25.955Z,3.70
2019-03-26T03:25:30.052Z,3.30
2019-03-26T03:30:33.946Z,3.10
2019-03-26T03:35:50.780Z,3.00
2019-03-26T03:40:38.142Z,2.90
2019-03-26T03:45:39.734Z,2.90
2019-03-26T03:50:42.150Z,2.60
2019-03-26T03:55:46.851Z,2.50
2019-03-26T04:00:48.968Z,2.60
2019-03-26T04:05:52.296Z,2.70
2019-03-26T04:10:53.587Z,2.70
2019-03-26T04:15:55.260Z,3.30
2019-03-26T04:20:56.376Z,2.80
2019-03-26T04:25:57.481Z,2.80
2019-03-26T04:30:58.594Z,3.10
2019-03-26T04:35:59.713Z,3.70
2019-03-26T04:41:08.158Z,3.20
2019-03-26T04:46:09.263Z,4.20
2019-03-26T04:51:10.484Z,2.90
2019-03-26T04:56:11.585Z,2.70
2019-03-26T05:01:12.977Z,2.70
2019-03-26T05:06:14.185Z,2.70
2019-03-26T05:11:21.624Z,3.70
2019-03-26T05:16:22.748Z,2.70
2019-03-26T05:21:23.850Z,2.70
2019-03-26T05:26:24.955Z,2.90
2019-03-26T05:31:26.087Z,2.90
2019-03-26T05:36:27.422Z,3.80
2019-03-26T05:41:28.986Z,3.00
2019-03-26T05:46:30.140Z,3.00
2019-03-26T05:51:33.248Z,3.00
2019-03-26T05:56:35.481Z,3.10
2019-03-26T06:01:36.584Z,3.20
2019-03-26T06:06:37.691Z,3.40
2019-03-26T06:11:38.784Z,4.50
2019-03-26T06:16:39.989Z,4.80
2019-03-26T06:21:41.087Z,4.10
2019-03-26T06:26:42.234Z,4.10
2019-03-26T06:31:43.343Z,3.70
2019-03-26T06:36:44.460Z,4.20
2019-03-26T06:41:45.588Z,3.80
2019-03-26T06:46:46.717Z,4.40
2019-03-26T06:51:47.843Z,3.80
2019-03-26T06:56:50.471Z,4.10
2019-03-26T07:01:51.833Z,4.30
2019-03-26T07:06:52.958Z,4.40
2019-03-26T07:11:54.315Z,4.40
2019-03-26T07:16:55.572Z,5.50
2019-03-26T07:21:56.655Z,4.30
2019-03-26T07:26:57.866Z,4.70
2019-03-26T07:31:58.959Z,4.40
2019-03-26T07:37:00.071Z,5.10
2019-03-26T07:42:01.165Z,4.70
2019-03-26T07:47:03.344Z,5.70
2019-03-26T07:52:04.496Z,4.90
2019-03-26T07:57:05.590Z,5.20
2019-03-26T08:02:06.691Z,7.10
2019-03-26T08:07:08.704Z,6.20
2019-03-26T08:12:11.219Z,5.70
2019-03-26T08:17:12.327Z,5.70
2019-03-26T08:22:13.439Z,5.70
2019-03-26T08:27:14.550Z,5.50
2019-03-26T08:32:15.864Z,5.50
2019-03-26T08:37:16.968Z,5.60
2019-03-26T08:42:18.077Z,6.80
2019-03-26T08:47:19.208Z,6.20
2019-03-26T08:52:20.320Z,6.50
2019-03-26T08:57:24.021Z,6.80
2019-03-26T09:02:25.454Z,6.80
2019-03-26T09:07:26.680Z,6.80
2019-03-26T09:12:27.992Z,7.20
2019-03-26T09:17:29.108Z,7.70
2019-03-26T09:22:30.199Z,8.20
2019-03-26T09:27:31.519Z,8.20
2019-03-26T09:32:32.826Z,8.40
2019-03-26T09:37:34.107Z,8.10
2019-03-26T09:42:36.000Z,8.00
2019-03-26T09:47:37.631Z,8.50
2019-03-26T09:52:38.760Z,8.40
2019-03-26T09:57:45.932Z,8.50
2019-03-26T10:02:47.161Z,8.30
2019-03-26T10:07:49.413Z,8.80
2019-03-26T10:12:50.634Z,8.70
2019-03-26T10:17:51.740Z,8.70
2019-03-26T10:22:52.847Z,8.70
2019-03-26T10:27:53.953Z,8.90
2019-03-26T10:32:55.153Z,9.30
2019-03-26T10:37:57.542Z,9.50
2019-03-26T10:42:59.438Z,9.30
2019-03-26T10:48:00.678Z,9.20
2019-03-26T10:53:01.822Z,10.00
2019-03-26T10:58:04.587Z,11.00
2019-03-26T11:03:06.184Z,10.60
2019-03-26T11:08:07.378Z,11.00
2019-03-26T11:13:08.461Z,10.60
2019-03-26T11:18:09.567Z,11.30
2019-03-26T11:23:10.884Z,14.10
2019-03-26T11:28:11.999Z,14.80
2019-03-26T11:33:13.102Z,13.50
2019-03-26T11:38:14.216Z,13.10
2019-03-26T11:43:16.852Z,12.60
2019-03-26T11:48:18.119Z,12.00
2019-03-26T11:53:19.312Z,10.70
2019-03-26T11:58:29.852Z,9.90
2019-03-26T12:03:25.334Z,9.70
2019-03-26T12:08:26.709Z,9.00
2019-03-26T12:13:27.787Z,8.90
2019-03-26T12:18:28.903Z,8.90
2019-03-26T12:23:32.321Z,9.30
2019-03-26T12:28:34.697Z,9.80
2019-03-26T12:33:35.863Z,10.80
2019-03-26T12:38:36.966Z,14.00
2019-03-26T12:43:38.084Z,14.10
2019-03-26T12:48:40.131Z,13.90
2019-03-26T12:53:41.291Z,13.30
2019-03-26T12:58:42.569Z,12.80
2019-03-26T13:03:43.673Z,14.00
2019-03-26T13:08:45.935Z,15.80
2019-03-26T13:13:47.370Z,13.90
2019-03-26T13:18:48.569Z,12.20
2019-03-26T13:23:49.773Z,11.00
2019-03-26T13:28:50.872Z,10.40
2019-03-26T13:33:51.969Z,10.60
2019-03-26T13:38:53.089Z,10.60
2019-03-26T13:43:55.061Z,9.90
2019-03-26T13:48:56.348Z,9.50
2019-03-26T13:53:57.475Z,9.60
2019-03-26T13:58:58.580Z,10.50
2019-03-26T14:03:59.798Z,14.20
2019-03-26T14:09:00.926Z,15.50
2019-03-26T14:14:02.732Z,14.50
2019-03-26T14:19:03.932Z,14.30
2019-03-26T14:24:05.150Z,14.00
2019-03-26T14:29:06.302Z,14.50
2019-03-26T14:34:07.394Z,13.10
2019-03-26T14:39:08.726Z,11.40
2019-03-26T14:44:09.868Z,10.40
2019-03-26T14:49:10.987Z,10.20
2019-03-26T14:54:12.119Z,10.60
2019-03-26T14:59:13.326Z,14.20
2019-03-26T15:04:14.473Z,17.40
2019-03-26T15:09:15.688Z,20.00
2019-03-26T15:14:16.883Z,19.90
2019-03-26T15:19:18.113Z,20.30
2019-03-26T15:24:19.214Z,20.70
2019-03-26T15:29:20.337Z,22.10
2019-03-26T15:34:21.451Z,19.90
2019-03-26T15:39:22.673Z,17.30
2019-03-26T15:44:25.404Z,18.80
2019-03-26T15:49:26.707Z,17.70
2019-03-26T15:54:28.041Z,14.00
2019-03-26T15:59:30.243Z,11.60
2019-03-26T16:04:31.516Z,12.70
